Buoy 41936

sailwx.info

Track history (hours):
 
Tides and Currents Weather Stations Pressure Air Temp Water Temp Dewpoint Dewpoint Depression Visibility Wind Speed Wind Dir Waves Ship Positions

Drifting buoy 41936

Last reported at 2014-Oct-22 22:00 UTC. Time now 2014-Oct-23 00:49 UTC.
Position N 27°47' W 063°52'.

Barometer 1015.2 mb
Water temperature 26.9 ° C

Date/timePositionNaut miles runAvg speedWind from/ knotsBaromVisibWave heightAir tempDewpointWater temp
2014-Oct-22 22:00N 27°47' W 063°52'1 0.3 1015.2 26.9
2014-Oct-22 18:00N 27°46' W 063°53'1 0.9 1015.5 26.9
2014-Oct-22 17:00N 27°46' W 063°52'1 0.3 1015.5 26.9
2014-Oct-22 15:00N 27°46' W 063°53'1 0.9 1017.1 26.9
2014-Oct-22 14:00N 27°45' W 063°53'0 0.0 1017.1 26.8
2014-Oct-22 11:00N 27°45' W 063°53'0 0.1 1016.1 26.8
2014-Oct-22 10:00N 27°45' W 063°53'0 0.5 1015.6 26.8
2014-Oct-22 09:00N 27°46' W 063°53'0 0.4 1015.3 26.8
2014-Oct-22 08:00N 27°46' W 063°53'0 0.4 1015.2 26.8
2014-Oct-22 07:00N 27°46' W 063°53'2 0.5 1015.8 26.8
2014-Oct-22 02:00N 27°45' W 063°56'2 0.8 1017.8 26.9
2014-Oct-22 00:00N 27°45' W 063°57'0 0.1 1017.0 26.9
2014-Oct-21 23:00N 27°45' W 063°57'1 0.3 1016.6 26.9
2014-Oct-21 18:00N 27°43' W 063°58'1 0.2 1016.1 27.2
2014-Oct-21 14:00N 27°43' W 063°58'0 0.0 1017.8 26.9
2014-Oct-21 11:00N 27°43' W 063°58'0 0.2 1017.0 26.8
2014-Oct-21 10:00N 27°43' W 063°58'1 0.7 1016.5 26.8
2014-Oct-21 09:00N 27°43' W 063°59'0 0.0 1016.2 26.8
2014-Oct-21 08:00N 27°43' W 063°59'0 0.1 1016.0 26.8
2014-Oct-21 07:00N 27°43' W 063°59'2 0.5 1015.9 26.8
2014-Oct-21 03:00N 27°42' W 064°01'1 0.6 1017.1 26.8
2014-Oct-21 02:00N 27°42' W 064°01'1 1.4 1017.4 26.8
2014-Oct-21 01:00N 27°42' W 064°02'1 0.3 1017.3 26.8
2014-Oct-20 23:00N 27°41' W 064°02'1 0.2 1016.7 26.9
2014-Oct-20 20:00N 27°41' W 064°02'1 0.6 1015.8 27.0
2014-Oct-20 18:00N 27°41' W 064°03'1 0.4 1015.7 27.0
2014-Oct-20 14:00N 27°40' W 064°04'0 0.0 1017.7 26.8
2014-Oct-20 13:00N 27°40' W 064°04'0 0.2 1017.5 26.8
2014-Oct-20 11:00N 27°41' W 064°04'0 0.4 1016.0 26.8
2014-Oct-20 10:00N 27°41' W 064°05'1 0.7 1015.4 26.8
2014-Oct-20 09:00N 27°41' W 064°05'0 0.0 1014.9 26.8
2014-Oct-20 07:00N 27°41' W 064°05'1 0.2 1014.7 26.8
2014-Oct-20 02:00N 27°40' W 064°06'2 1.7 1016.1 26.8
2014-Oct-20 01:00N 27°41' W 064°08'2 1.8 1015.7 26.9
2014-Oct-20 00:00N 27°40' W 064°07'1 0.3 1014.9 26.9
2014-Oct-19 21:00N 27°39' W 064°08'0 0.0 1013.7 27.2
2014-Oct-19 20:00N 27°39' W 064°08'0 0.3 1014.0 27.3
2014-Oct-19 19:00N 27°40' W 064°08'0 0.0 1013.9 27.4
2014-Oct-19 18:00N 27°40' W 064°08'1 0.7 1014.2 27.4
2014-Oct-19 16:00N 27°41' W 064°09'0 0.1 1015.4 27.3
2014-Oct-19 15:00N 27°41' W 064°09'1 1.0 1015.4 27.1
2014-Oct-19 14:00N 27°41' W 064°10'2 1.7 1015.6 27.0
2014-Oct-19 13:00N 27°40' W 064°12'1 0.3 1015.4 26.8
2014-Oct-19 09:00N 27°39' W 064°13'0 0.1 1013.8 26.8
2014-Oct-19 07:00N 27°39' W 064°13'2 0.4 1013.6 26.8
2014-Oct-19 02:00N 27°38' W 064°15'0 0.0 1014.8 26.9
2014-Oct-19 01:00N 27°38' W 064°15'0 0.0 1014.6 26.9
2014-Oct-18 23:00N 27°38' W 064°15'0 0.3 1013.7 27.1
2014-Oct-18 22:00N 27°38' W 064°15'0 0.2 1012.9 27.2
2014-Oct-18 21:00N 27°38' W 064°15'3 1.3 1012.6 27.3
2014-Oct-18 19:00N 27°40' W 064°17'2 1.9 1012.3 27.6
2014-Oct-18 18:00N 27°39' W 064°15'2 0.8 1012.7 27.6
2014-Oct-18 15:00N 27°40' W 064°17'1 1.4 1013.3 27.2
2014-Oct-18 14:00N 27°41' W 064°19'2 0.8 1013.6 26.9
2014-Oct-18 11:00N 27°39' W 064°21'1 0.9 1012.1 26.7
2014-Oct-18 10:00N 27°38' W 064°21'1 0.6 1011.3 26.7
2014-Oct-18 09:00N 27°38' W 064°22'0 0.1 1010.9 26.8
2014-Oct-18 07:00N 27°38' W 064°22'1 0.1 1010.5 26.8
2014-Oct-18 02:00N 27°38' W 064°21'0 0.1 1011.0 26.8
2014-Oct-18 01:00N 27°38' W 064°21'2 0.8 1011.0 26.8
2014-Oct-17 23:00N 27°39' W 064°23'1 0.5 1010.2 26.8
2014-Oct-17 21:00N 27°39' W 064°24'1 0.7 1009.1 26.8
2014-Oct-17 19:00N 27°39' W 064°25'0 0.0 1009.4 26.8
2014-Oct-17 17:00N 27°39' W 064°25'2 1.0 1009.2 26.8
2014-Oct-17 15:00N 27°40' W 064°27'1 0.8 1010.2 26.8
2014-Oct-17 14:00N 27°40' W 064°27'4 1.3 1010.0 26.8
2014-Oct-17 11:00N 27°39' W 064°31'1 0.7 1024.0 -0.1
2014-Oct-17 09:00N 27°38' W 064°32'0 0.3 1006.7 26.8
2014-Oct-17 08:00N 27°38' W 064°32'1 0.8 1006.7 26.8
2014-Oct-17 07:00N 27°38' W 064°33'0 0.0 1007.3 26.8
2014-Oct-17 06:00N 27°38' W 064°33'3 0.7 1008.1 26.8
2014-Oct-17 02:00N 27°37' W 064°36'4 1.9 1009.9 26.9
2014-Oct-17 00:00N 27°36' W 064°40'0 0.0 1010.0 26.9
2014-Oct-16 22:00N 27°36' W 064°40'2 0.7 1010.7 26.9
2014-Oct-16 19:00N 27°35' W 064°42'4 0.5 1010.7 26.9
2014-Oct-16 11:00N 27°31' W 064°43'3 0.3 1013.4 26.9
2014-Oct-16 02:00N 27°32' W 064°46'3 2.6 1016.2 26.9
2014-Oct-16 01:00N 27°33' W 064°49'0 0.0 1016.1 26.9
2014-Oct-16 00:00N 27°33' W 064°49'0 0.0 1016.2 26.9
2014-Oct-15 23:00N 27°33' W 064°49'6 1.3 1015.8 27.0
2014-Oct-15 18:00N 27°29' W 064°54'1 0.3 1016.6 27.0
2014-Oct-15 15:00N 27°28' W 064°54'2 0.5 1018.2 27.1
2014-Oct-15 10:00N 27°26' W 064°52'0 0.0 1017.0 27.0
2014-Oct-15 09:00N 27°26' W 064°52'1 0.3 1016.9 27.1
2014-Oct-15 06:00N 27°27' W 064°51'3 0.9 1017.6 27.1
2014-Oct-15 03:00N 27°29' W 064°53'1 0.4 1018.5 27.1
2014-Oct-15 01:00N 27°29' W 064°54'2 1.2 1018.8 27.1
2014-Oct-14 23:00N 27°30' W 064°56'1 1.1 1018.3 27.2
2014-Oct-14 22:00N 27°30' W 064°57'5 1.2 1018.0 27.2
2014-Oct-14 18:00N 27°27' W 065°02'0 0.0 1017.7 27.2
2014-Oct-14 16:00N 27°27' W 065°02'0 0.0 1018.8 27.2
2014-Oct-14 15:00N 27°27' W 065°02'1 1.0 1019.6 27.2
2014-Oct-14 14:00N 27°27' W 065°03'3 1.0 1019.5 27.2
2014-Oct-14 11:00N 27°24' W 065°02'1 1.1 1018.6 27.2
2014-Oct-14 10:00N 27°24' W 065°01'0 0.0 1018.1 27.2
2014-Oct-14 09:00N 27°24' W 065°01'1 1.0 1017.6 27.2
2014-Oct-14 08:00N 27°24' W 064°60'1 0.4 1017.1 27.2
2014-Oct-14 06:00N 27°24' W 064°59'6 1.6 1017.9 27.2
2014-Oct-14 02:00N 27°30' W 065°01'0 0.0 1019.2 27.3
2014-Oct-14 01:00N 27°30' W 065°01'5 1.3 1019.2 27.3
2014-Oct-13 21:00N 27°31' W 065°07'3 0.9 1018.2 27.4
2014-Oct-13 18:00N 27°30' W 065°09'3 2.7 1018.1 27.5
2014-Oct-13 17:00N 27°31' W 065°07'3 1.6 1018.5 27.4
2014-Oct-13 15:00N 27°29' W 065°09'1 0.9 1019.5 27.3
2014-Oct-13 14:00N 27°28' W 065°09'2 0.6 1019.8 27.3
2014-Oct-13 11:00N 27°26' W 065°09'3 1.5 1018.7 27.2
2014-Oct-13 09:00N 27°26' W 065°06'0 0.0 1017.9 27.2
2014-Oct-13 08:00N 27°26' W 065°06'0 0.1 1017.6 27.2
2014-Oct-13 07:00N 27°26' W 065°06'5 1.0 1017.5 27.2
2014-Oct-13 02:00N 27°31' W 065°05'0 0.4 1018.1 27.2
2014-Oct-13 01:00N 27°31' W 065°04'4 4.5 1017.9 27.3
2014-Oct-13 00:00N 27°34' W 065°08'0 0.0 1017.6 27.3
2014-Oct-12 23:00N 27°34' W 065°08'0 0.0 1017.2 27.3
2014-Oct-12 22:00N 27°34' W 065°08'   1017.0 27.3
Track history (hours):
 
Tides and Currents Weather Stations Pressure Air Temp Water Temp Dewpoint Dewpoint Depression Visibility Wind Speed Wind Dir Waves Ship Positions

Drifting buoy 41936

Last reported at 2014-Oct-22 22:00 UTC. Time now 2014-Oct-23 00:49 UTC.
Position N 27°47' W 063°52'.

Barometer 1015.2 mb
Water temperature 26.9 ° C

Date/timePositionNaut miles runAvg speedWind from/ knotsBaromVisibWave heightAir tempDewpointWater temp
2014-Oct-22 22:00N 27°47' W 063°52'1 0.3 1015.2 26.9
2014-Oct-22 18:00N 27°46' W 063°53'1 0.9 1015.5 26.9
2014-Oct-22 17:00N 27°46' W 063°52'1 0.3 1015.5 26.9
2014-Oct-22 15:00N 27°46' W 063°53'1 0.9 1017.1 26.9
2014-Oct-22 14:00N 27°45' W 063°53'0 0.0 1017.1 26.8
2014-Oct-22 11:00N 27°45' W 063°53'0 0.1 1016.1 26.8
2014-Oct-22 10:00N 27°45' W 063°53'0 0.5 1015.6 26.8
2014-Oct-22 09:00N 27°46' W 063°53'0 0.4 1015.3 26.8
2014-Oct-22 08:00N 27°46' W 063°53'0 0.4 1015.2 26.8
2014-Oct-22 07:00N 27°46' W 063°53'2 0.5 1015.8 26.8
2014-Oct-22 02:00N 27°45' W 063°56'2 0.8 1017.8 26.9
2014-Oct-22 00:00N 27°45' W 063°57'0 0.1 1017.0 26.9
2014-Oct-21 23:00N 27°45' W 063°57'1 0.3 1016.6 26.9
2014-Oct-21 18:00N 27°43' W 063°58'1 0.2 1016.1 27.2
2014-Oct-21 14:00N 27°43' W 063°58'0 0.0 1017.8 26.9
2014-Oct-21 11:00N 27°43' W 063°58'0 0.2 1017.0 26.8
2014-Oct-21 10:00N 27°43' W 063°58'1 0.7 1016.5 26.8
2014-Oct-21 09:00N 27°43' W 063°59'0 0.0 1016.2 26.8
2014-Oct-21 08:00N 27°43' W 063°59'0 0.1 1016.0 26.8
2014-Oct-21 07:00N 27°43' W 063°59'2 0.5 1015.9 26.8
2014-Oct-21 03:00N 27°42' W 064°01'1 0.6 1017.1 26.8
2014-Oct-21 02:00N 27°42' W 064°01'1 1.4 1017.4 26.8
2014-Oct-21 01:00N 27°42' W 064°02'1 0.3 1017.3 26.8
2014-Oct-20 23:00N 27°41' W 064°02'1 0.2 1016.7 26.9
2014-Oct-20 20:00N 27°41' W 064°02'1 0.6 1015.8 27.0
2014-Oct-20 18:00N 27°41' W 064°03'1 0.4 1015.7 27.0
2014-Oct-20 14:00N 27°40' W 064°04'0 0.0 1017.7 26.8
2014-Oct-20 13:00N 27°40' W 064°04'0 0.2 1017.5 26.8
2014-Oct-20 11:00N 27°41' W 064°04'0 0.4 1016.0 26.8
2014-Oct-20 10:00N 27°41' W 064°05'1 0.7 1015.4 26.8
2014-Oct-20 09:00N 27°41' W 064°05'0 0.0 1014.9 26.8
2014-Oct-20 07:00N 27°41' W 064°05'1 0.2 1014.7 26.8
2014-Oct-20 02:00N 27°40' W 064°06'2 1.7 1016.1 26.8
2014-Oct-20 01:00N 27°41' W 064°08'2 1.8 1015.7 26.9
2014-Oct-20 00:00N 27°40' W 064°07'1 0.3 1014.9 26.9
2014-Oct-19 21:00N 27°39' W 064°08'0 0.0 1013.7 27.2
2014-Oct-19 20:00N 27°39' W 064°08'0 0.3 1014.0 27.3
2014-Oct-19 19:00N 27°40' W 064°08'0 0.0 1013.9 27.4
2014-Oct-19 18:00N 27°40' W 064°08'1 0.7 1014.2 27.4
2014-Oct-19 16:00N 27°41' W 064°09'0 0.1 1015.4 27.3
2014-Oct-19 15:00N 27°41' W 064°09'1 1.0 1015.4 27.1
2014-Oct-19 14:00N 27°41' W 064°10'2 1.7 1015.6 27.0
2014-Oct-19 13:00N 27°40' W 064°12'1 0.3 1015.4 26.8
2014-Oct-19 09:00N 27°39' W 064°13'0 0.1 1013.8 26.8
2014-Oct-19 07:00N 27°39' W 064°13'2 0.4 1013.6 26.8
2014-Oct-19 02:00N 27°38' W 064°15'0 0.0 1014.8 26.9
2014-Oct-19 01:00N 27°38' W 064°15'0 0.0 1014.6 26.9
2014-Oct-18 23:00N 27°38' W 064°15'0 0.3 1013.7 27.1
2014-Oct-18 22:00N 27°38' W 064°15'0 0.2 1012.9 27.2
2014-Oct-18 21:00N 27°38' W 064°15'3 1.3 1012.6 27.3
2014-Oct-18 19:00N 27°40' W 064°17'2 1.9 1012.3 27.6
2014-Oct-18 18:00N 27°39' W 064°15'2 0.8 1012.7 27.6
2014-Oct-18 15:00N 27°40' W 064°17'1 1.4 1013.3 27.2
2014-Oct-18 14:00N 27°41' W 064°19'2 0.8 1013.6 26.9
2014-Oct-18 11:00N 27°39' W 064°21'1 0.9 1012.1 26.7
2014-Oct-18 10:00N 27°38' W 064°21'1 0.6 1011.3 26.7
2014-Oct-18 09:00N 27°38' W 064°22'0 0.1 1010.9 26.8
2014-Oct-18 07:00N 27°38' W 064°22'1 0.1 1010.5 26.8
2014-Oct-18 02:00N 27°38' W 064°21'0 0.1 1011.0 26.8
2014-Oct-18 01:00N 27°38' W 064°21'2 0.8 1011.0 26.8
2014-Oct-17 23:00N 27°39' W 064°23'1 0.5 1010.2 26.8
2014-Oct-17 21:00N 27°39' W 064°24'1 0.7 1009.1 26.8
2014-Oct-17 19:00N 27°39' W 064°25'0 0.0 1009.4 26.8
2014-Oct-17 17:00N 27°39' W 064°25'2 1.0 1009.2 26.8
2014-Oct-17 15:00N 27°40' W 064°27'1 0.8 1010.2 26.8
2014-Oct-17 14:00N 27°40' W 064°27'4 1.3 1010.0 26.8
2014-Oct-17 11:00N 27°39' W 064°31'1 0.7 1024.0 -0.1
2014-Oct-17 09:00N 27°38' W 064°32'0 0.3 1006.7 26.8
2014-Oct-17 08:00N 27°38' W 064°32'1 0.8 1006.7 26.8
2014-Oct-17 07:00N 27°38' W 064°33'0 0.0 1007.3 26.8
2014-Oct-17 06:00N 27°38' W 064°33'3 0.7 1008.1 26.8
2014-Oct-17 02:00N 27°37' W 064°36'4 1.9 1009.9 26.9
2014-Oct-17 00:00N 27°36' W 064°40'0 0.0 1010.0 26.9
2014-Oct-16 22:00N 27°36' W 064°40'2 0.7 1010.7 26.9
2014-Oct-16 19:00N 27°35' W 064°42'4 0.5 1010.7 26.9
2014-Oct-16 11:00N 27°31' W 064°43'3 0.3 1013.4 26.9
2014-Oct-16 02:00N 27°32' W 064°46'3 2.6 1016.2 26.9
2014-Oct-16 01:00N 27°33' W 064°49'0 0.0 1016.1 26.9
2014-Oct-16 00:00N 27°33' W 064°49'0 0.0 1016.2 26.9
2014-Oct-15 23:00N 27°33' W 064°49'6 1.3 1015.8 27.0
2014-Oct-15 18:00N 27°29' W 064°54'1 0.3 1016.6 27.0
2014-Oct-15 15:00N 27°28' W 064°54'2 0.5 1018.2 27.1
2014-Oct-15 10:00N 27°26' W 064°52'0 0.0 1017.0 27.0
2014-Oct-15 09:00N 27°26' W 064°52'1 0.3 1016.9 27.1
2014-Oct-15 06:00N 27°27' W 064°51'3 0.9 1017.6 27.1
2014-Oct-15 03:00N 27°29' W 064°53'1 0.4 1018.5 27.1
2014-Oct-15 01:00N 27°29' W 064°54'2 1.2 1018.8 27.1
2014-Oct-14 23:00N 27°30' W 064°56'1 1.1 1018.3 27.2
2014-Oct-14 22:00N 27°30' W 064°57'5 1.2 1018.0 27.2
2014-Oct-14 18:00N 27°27' W 065°02'0 0.0 1017.7 27.2
2014-Oct-14 16:00N 27°27' W 065°02'0 0.0 1018.8 27.2
2014-Oct-14 15:00N 27°27' W 065°02'1 1.0 1019.6 27.2
2014-Oct-14 14:00N 27°27' W 065°03'3 1.0 1019.5 27.2
2014-Oct-14 11:00N 27°24' W 065°02'1 1.1 1018.6 27.2
2014-Oct-14 10:00N 27°24' W 065°01'0 0.0 1018.1 27.2
2014-Oct-14 09:00N 27°24' W 065°01'1 1.0 1017.6 27.2
2014-Oct-14 08:00N 27°24' W 064°60'1 0.4 1017.1 27.2
2014-Oct-14 06:00N 27°24' W 064°59'6 1.6 1017.9 27.2
2014-Oct-14 02:00N 27°30' W 065°01'0 0.0 1019.2 27.3
2014-Oct-14 01:00N 27°30' W 065°01'5 1.3 1019.2 27.3
2014-Oct-13 21:00N 27°31' W 065°07'3 0.9 1018.2 27.4
2014-Oct-13 18:00N 27°30' W 065°09'3 2.7 1018.1 27.5
2014-Oct-13 17:00N 27°31' W 065°07'3 1.6 1018.5 27.4
2014-Oct-13 15:00N 27°29' W 065°09'1 0.9 1019.5 27.3
2014-Oct-13 14:00N 27°28' W 065°09'2 0.6 1019.8 27.3
2014-Oct-13 11:00N 27°26' W 065°09'3 1.5 1018.7 27.2
2014-Oct-13 09:00N 27°26' W 065°06'0 0.0 1017.9 27.2
2014-Oct-13 08:00N 27°26' W 065°06'0 0.1 1017.6 27.2
2014-Oct-13 07:00N 27°26' W 065°06'5 1.0 1017.5 27.2
2014-Oct-13 02:00N 27°31' W 065°05'0 0.4 1018.1 27.2
2014-Oct-13 01:00N 27°31' W 065°04'4 4.5 1017.9 27.3
2014-Oct-13 00:00N 27°34' W 065°08'0 0.0 1017.6 27.3
2014-Oct-12 23:00N 27°34' W 065°08'0 0.0 1017.2 27.3
2014-Oct-12 22:00N 27°34' W 065°08'   1017.0 27.3

Dump ship's entire track history